createdAt,value
2023-09-19T00:02:12.944Z,6.10
2023-09-19T00:05:15.388Z,6.25
2023-09-19T00:08:17.848Z,6.55
2023-09-19T00:11:20.513Z,6.10
2023-09-19T00:14:25.850Z,5.80
2023-09-19T00:17:31.701Z,6.55
2023-09-19T00:20:36.359Z,6.03
2023-09-19T00:23:39.523Z,6.40
2023-09-19T00:26:42.117Z,6.65
2023-09-19T00:29:44.506Z,6.75
2023-09-19T00:32:51.040Z,6.63
2023-09-19T00:35:57.236Z,6.25
2023-09-19T00:39:01.808Z,6.13
2023-09-19T00:42:06.408Z,6.55
2023-09-19T00:45:12.035Z,6.65
2023-09-19T00:48:18.425Z,6.40
2023-09-19T00:51:23.465Z,6.38
2023-09-19T00:54:26.910Z,6.03
2023-09-19T00:57:30.577Z,6.68
2023-09-19T01:00:35.107Z,6.70
2023-09-19T01:03:38.245Z,6.22
2023-09-19T01:06:40.867Z,6.20
2023-09-19T01:09:43.777Z,7.75
2023-09-19T01:12:46.239Z,6.55
2023-09-19T01:16:01.231Z,6.15
2023-09-19T01:19:14.245Z,6.03
2023-09-19T01:22:34.257Z,6.63
2023-09-19T01:25:59.549Z,6.82
2023-09-19T01:29:20.609Z,7.07
2023-09-19T01:32:26.286Z,6.63
2023-09-19T01:35:29.140Z,6.40
2023-09-19T01:38:31.646Z,6.75
2023-09-19T01:41:42.319Z,6.80
2023-09-19T01:44:47.798Z,6.72
2023-09-19T01:47:52.265Z,6.60
2023-09-19T01:51:07.064Z,6.90
2023-09-19T01:54:15.518Z,7.38
2023-09-19T01:57:35.768Z,7.18
2023-09-19T02:00:39.148Z,7.13
2023-09-19T02:03:42.361Z,8.00
2023-09-19T02:06:44.874Z,7.38
2023-09-19T02:09:49.155Z,6.85
2023-09-19T02:12:52.040Z,7.28
2023-09-19T02:15:55.059Z,7.63
2023-09-19T02:18:57.984Z,7.25
2023-09-19T02:22:04.338Z,7.72
2023-09-19T02:25:08.744Z,7.43
2023-09-19T02:28:12.976Z,7.53
2023-09-19T02:31:17.785Z,7.25
2023-09-19T02:34:20.512Z,8.07
2023-09-19T02:37:24.039Z,7.80
2023-09-19T02:40:28.664Z,8.05
2023-09-19T02:43:31.397Z,8.68
2023-09-19T02:46:34.074Z,7.95
2023-09-19T02:49:37.383Z,8.13
2023-09-19T02:52:42.348Z,7.88
2023-09-19T02:55:44.950Z,8.00
2023-09-19T02:58:47.531Z,7.82
2023-09-19T03:01:50.332Z,7.70
2023-09-19T03:04:57.732Z,8.68
2023-09-19T03:08:04.287Z,8.00
2023-09-19T03:11:10.106Z,7.95
2023-09-19T03:14:15.444Z,7.93
2023-09-19T03:20:22.374Z,7.57
2023-09-19T03:23:28.174Z,8.25
2023-09-19T03:26:31.353Z,8.00
2023-09-19T03:29:35.751Z,8.38
2023-09-19T03:32:44.826Z,7.72
2023-09-19T03:35:53.214Z,8.02
2023-09-19T03:38:55.814Z,8.02
2023-09-19T03:41:58.165Z,8.60
2023-09-19T03:45:02.089Z,8.77
2023-09-19T03:48:14.354Z,8.40
2023-09-19T03:51:16.973Z,8.90
2023-09-19T03:54:20.612Z,9.13
2023-09-19T03:57:23.237Z,8.63
2023-09-19T04:03:36.767Z,8.23
2023-09-19T04:06:39.632Z,8.45
2023-09-19T04:09:45.112Z,8.82
2023-09-19T04:12:54.606Z,8.65
2023-09-19T04:15:58.346Z,9.20
2023-09-19T04:19:00.888Z,9.05
2023-09-19T04:22:05.210Z,8.95
2023-09-19T04:25:11.430Z,8.55
2023-09-19T04:28:13.964Z,8.05
2023-09-19T04:31:17.944Z,7.78
2023-09-19T04:34:20.494Z,8.15
2023-09-19T04:37:23.050Z,7.43
2023-09-19T04:40:27.993Z,6.95
2023-09-19T04:43:30.805Z,6.70
2023-09-19T04:46:33.448Z,5.78
2023-09-19T04:49:36.298Z,5.72
2023-09-19T04:52:43.317Z,5.38
2023-09-19T04:55:56.813Z,5.25
2023-09-19T04:58:59.958Z,4.78
2023-09-19T05:02:06.178Z,4.70
2023-09-19T05:05:16.064Z,3.45
2023-09-19T05:08:18.589Z,3.22
2023-09-19T05:11:22.988Z,2.90
2023-09-19T05:14:25.988Z,2.75
2023-09-19T05:17:28.532Z,2.28
2023-09-19T05:20:32.164Z,2.15
2023-09-19T05:23:34.961Z,1.65
2023-09-19T05:26:37.403Z,2.00
2023-09-19T05:29:39.678Z,1.88
2023-09-19T05:32:42.414Z,1.90
2023-09-19T05:35:44.926Z,2.10
2023-09-19T05:38:50.858Z,1.73
2023-09-19T05:41:53.087Z,1.77
2023-09-19T05:44:55.305Z,2.00
2023-09-19T05:48:05.469Z,1.90
2023-09-19T05:51:14.453Z,1.80
2023-09-19T05:54:16.661Z,1.52
2023-09-19T05:57:19.765Z,1.67
2023-09-19T06:00:25.334Z,1.88
2023-09-19T06:03:27.621Z,1.50
2023-09-19T06:06:29.955Z,1.55
2023-09-19T06:09:33.254Z,2.03
2023-09-19T06:12:40.291Z,2.20
2023-09-19T06:15:42.459Z,1.50
2023-09-19T06:22:22.415Z,1.60
2023-09-19T06:25:25.084Z,1.60
2023-09-19T06:28:29.438Z,1.50
2023-09-19T06:31:33.640Z,2.00
2023-09-19T06:34:36.240Z,1.50
2023-09-19T06:37:42.054Z,1.60
2023-09-19T06:40:44.431Z,1.70
2023-09-19T06:43:48.456Z,1.60
2023-09-19T06:46:52.685Z,1.85
2023-09-19T06:49:55.525Z,1.83
2023-09-19T06:52:59.531Z,1.55
2023-09-19T06:56:01.938Z,1.38
2023-09-19T06:59:07.133Z,1.58
2023-09-19T07:02:09.780Z,2.10
2023-09-19T07:05:15.276Z,2.00
2023-09-19T07:08:21.130Z,1.83
2023-09-19T07:11:23.831Z,2.28
2023-09-19T07:14:26.307Z,1.80
2023-09-19T07:17:29.311Z,1.80
2023-09-19T07:20:35.500Z,2.05
2023-09-19T07:23:39.776Z,2.00
2023-09-19T07:26:42.709Z,2.17
2023-09-19T07:29:47.821Z,1.52
2023-09-19T07:32:53.646Z,2.10
2023-09-19T07:36:01.782Z,1.70
2023-09-19T07:42:12.823Z,1.30
2023-09-19T07:45:15.755Z,1.50
2023-09-19T07:48:21.190Z,1.67
2023-09-19T07:51:23.462Z,1.50
2023-09-19T07:57:37.229Z,2.10
2023-09-19T08:00:40.003Z,1.63
2023-09-19T08:03:43.917Z,1.70
2023-09-19T08:06:46.361Z,1.73
2023-09-19T08:09:49.895Z,2.22
2023-09-19T08:12:57.398Z,2.55
2023-09-19T08:16:02.634Z,2.00
2023-09-19T08:19:05.080Z,2.38
2023-09-19T08:22:18.738Z,1.90
2023-09-19T08:25:22.624Z,1.70
2023-09-19T08:28:25.712Z,1.92
2023-09-19T08:31:28.162Z,2.00
2023-09-19T08:34:32.763Z,1.90
2023-09-19T08:37:35.327Z,2.17
2023-09-19T08:40:42.379Z,2.03
2023-09-19T08:43:44.918Z,2.05
2023-09-19T08:46:47.906Z,2.00
2023-09-19T08:49:54.514Z,2.03
2023-09-19T08:52:58.222Z,1.63
2023-09-19T08:56:06.005Z,1.70
2023-09-19T08:59:15.460Z,1.90
2023-09-19T09:02:20.262Z,2.03
2023-09-19T09:05:25.213Z,1.65
2023-09-19T09:08:28.344Z,1.90
2023-09-19T09:11:34.075Z,1.70
2023-09-19T09:14:41.329Z,2.10
2023-09-19T09:17:49.561Z,1.90
2023-09-19T09:20:53.111Z,1.85
2023-09-19T09:23:56.177Z,2.58
2023-09-19T09:26:59.284Z,2.97
2023-09-19T09:30:01.791Z,2.20
2023-09-19T09:33:14.542Z,2.00
2023-09-19T09:36:35.002Z,1.83
2023-09-19T09:39:37.852Z,1.90
2023-09-19T09:42:42.202Z,2.08
2023-09-19T09:49:15.084Z,1.63
2023-09-19T09:52:18.430Z,2.00
2023-09-19T09:55:21.660Z,2.00
2023-09-19T09:58:30.507Z,2.17
2023-09-19T10:01:49.622Z,2.00
2023-09-19T10:04:53.278Z,1.77
2023-09-19T10:08:10.197Z,1.98
2023-09-19T10:11:16.943Z,2.03
2023-09-19T10:14:26.862Z,2.40
2023-09-19T10:17:31.739Z,2.10
2023-09-19T10:20:34.907Z,1.88
2023-09-19T10:23:38.477Z,2.03
2023-09-19T10:26:44.662Z,1.60
2023-09-19T10:29:52.047Z,2.05
2023-09-19T10:33:00.635Z,1.65
2023-09-19T10:36:06.483Z,2.00
2023-09-19T10:39:09.971Z,1.98
2023-09-19T10:42:16.944Z,2.08
2023-09-19T10:45:22.875Z,2.08
2023-09-19T10:48:27.538Z,2.03
2023-09-19T10:51:32.847Z,2.20
2023-09-19T10:54:38.175Z,2.40
2023-09-19T10:57:45.818Z,2.20
2023-09-19T11:00:58.619Z,2.00
2023-09-19T11:04:23.707Z,2.20
2023-09-19T11:07:27.216Z,2.20
2023-09-19T11:10:52.302Z,2.30
2023-09-19T11:14:15.604Z,2.20
2023-09-19T11:17:20.776Z,2.30
2023-09-19T11:20:23.631Z,2.42
2023-09-19T11:23:32.079Z,2.30
2023-09-19T11:26:50.756Z,2.20
2023-09-19T11:30:13.499Z,2.30
2023-09-19T11:36:22.369Z,1.95
2023-09-19T11:39:28.595Z,1.73
2023-09-19T11:42:49.176Z,1.58
2023-09-19T11:45:59.158Z,1.70
2023-09-19T11:49:14.671Z,1.65
2023-09-19T11:52:25.458Z,1.80
2023-09-19T11:55:34.207Z,1.70
2023-09-19T11:58:39.147Z,1.70
2023-09-19T12:01:51.436Z,2.20
2023-09-19T12:04:55.098Z,1.75
2023-09-19T12:07:57.769Z,1.75
2023-09-19T12:11:07.996Z,1.90
2023-09-19T12:14:10.764Z,1.90
2023-09-19T12:17:14.307Z,1.60
2023-09-19T12:20:20.359Z,1.63
2023-09-19T12:23:24.440Z,1.80
2023-09-19T12:26:29.964Z,2.00
2023-09-19T12:29:33.371Z,2.10
2023-09-19T12:32:41.707Z,2.00
2023-09-19T12:35:46.940Z,2.22
2023-09-19T12:38:54.173Z,2.20
2023-09-19T12:42:00.111Z,2.47
2023-09-19T12:45:19.105Z,2.90
2023-09-19T12:48:37.037Z,2.53
2023-09-19T12:51:42.859Z,2.50
2023-09-19T12:54:55.745Z,2.08
2023-09-19T12:58:13.273Z,1.80
2023-09-19T13:01:16.279Z,2.17
2023-09-19T13:04:30.328Z,2.00
2023-09-19T13:07:46.576Z,2.20
2023-09-19T13:11:24.252Z,2.28
2023-09-19T13:14:33.111Z,2.25
2023-09-19T13:17:45.214Z,1.98
2023-09-19T13:21:06.712Z,1.90
2023-09-19T13:24:22.331Z,2.10
2023-09-19T13:27:24.769Z,1.90
2023-09-19T13:30:29.695Z,2.00
2023-09-19T13:33:33.639Z,2.00
2023-09-19T13:36:36.145Z,2.28
2023-09-19T13:39:39.093Z,2.20
2023-09-19T13:42:42.352Z,2.30
2023-09-19T13:45:44.604Z,2.42
2023-09-19T13:48:57.452Z,1.90
2023-09-19T13:52:02.375Z,2.33
2023-09-19T13:55:06.802Z,2.30
2023-09-19T13:58:12.097Z,2.70
2023-09-19T14:01:17.178Z,2.40
2023-09-19T14:04:19.706Z,2.10
2023-09-19T14:10:25.373Z,1.98
2023-09-19T14:13:27.651Z,2.50
2023-09-19T14:16:32.320Z,7.18
2023-09-19T14:19:37.293Z,2.80
2023-09-19T14:22:39.659Z,2.55
2023-09-19T14:25:42.822Z,2.30
2023-09-19T14:28:46.170Z,2.35
2023-09-19T14:31:48.728Z,2.30
2023-09-19T14:34:51.199Z,2.50
2023-09-19T14:37:56.406Z,2.28
2023-09-19T14:41:02.862Z,2.10
2023-09-19T14:44:06.345Z,2.40
2023-09-19T14:47:08.889Z,3.00
2023-09-19T14:50:11.815Z,5.07
2023-09-19T14:53:15.160Z,3.10
2023-09-19T14:56:21.524Z,2.30
2023-09-19T14:59:24.247Z,2.40
2023-09-19T15:02:29.645Z,2.40
2023-09-19T15:05:32.820Z,2.47
2023-09-19T15:08:36.318Z,2.30
2023-09-19T15:14:43.475Z,2.58
2023-09-19T15:17:46.083Z,2.17
2023-09-19T15:20:49.048Z,2.30
2023-09-19T15:23:51.929Z,2.58
2023-09-19T15:26:56.687Z,2.05
2023-09-19T15:30:01.718Z,2.13
2023-09-19T15:33:04.747Z,2.53
2023-09-19T15:36:08.764Z,2.60
2023-09-19T15:39:17.808Z,3.50
2023-09-19T15:42:21.040Z,2.80
2023-09-19T15:45:26.776Z,2.20
2023-09-19T15:48:30.408Z,2.08
2023-09-19T15:54:36.322Z,2.40
2023-09-19T15:57:40.014Z,2.65
2023-09-19T16:00:42.699Z,2.40
2023-09-19T16:03:46.543Z,2.50
2023-09-19T16:06:49.847Z,2.85
2023-09-19T16:09:53.228Z,3.03
2023-09-19T16:12:55.756Z,2.25
2023-09-19T16:15:59.434Z,2.28
2023-09-19T16:19:04.602Z,2.67
2023-09-19T16:22:07.485Z,2.65
2023-09-19T16:25:13.165Z,2.58
2023-09-19T16:28:16.415Z,2.60
2023-09-19T16:31:20.273Z,3.90
2023-09-19T16:34:22.977Z,2.50
2023-09-19T16:37:26.574Z,2.55
2023-09-19T16:40:29.299Z,2.85
2023-09-19T16:43:35.282Z,2.80
2023-09-19T16:46:41.190Z,3.20
2023-09-19T16:49:44.234Z,2.85
2023-09-19T16:52:46.967Z,3.25
2023-09-19T16:55:49.989Z,3.00
2023-09-19T16:58:53.759Z,2.72
2023-09-19T17:01:58.506Z,4.35
2023-09-19T17:05:04.133Z,4.93
2023-09-19T17:08:14.002Z,12.05
2023-09-19T17:11:18.839Z,10.18
2023-09-19T17:14:24.908Z,4.03
2023-09-19T17:17:28.478Z,4.03
2023-09-19T17:20:32.001Z,3.15
2023-09-19T17:23:35.239Z,3.17
2023-09-19T17:26:38.768Z,3.33
2023-09-19T17:29:43.924Z,3.38
2023-09-19T17:32:48.400Z,2.88
2023-09-19T17:36:08.262Z,3.17
2023-09-19T17:39:16.962Z,2.90
2023-09-19T17:42:21.024Z,2.65
2023-09-19T17:45:25.389Z,3.00
2023-09-19T17:48:44.424Z,2.70
2023-09-19T17:51:51.141Z,3.00
2023-09-19T17:54:59.871Z,2.92
2023-09-19T17:58:05.121Z,2.65
2023-09-19T18:01:13.784Z,3.20
2023-09-19T18:04:21.673Z,3.33
2023-09-19T18:07:34.131Z,3.15
2023-09-19T18:10:44.355Z,3.15
2023-09-19T18:13:55.981Z,3.03
2023-09-19T18:17:04.357Z,3.30
2023-09-19T18:20:16.488Z,3.33
2023-09-19T18:23:22.153Z,3.47
2023-09-19T18:26:27.621Z,3.85
2023-09-19T18:29:34.418Z,3.63
2023-09-19T18:32:59.284Z,3.30
2023-09-19T18:36:07.922Z,3.50
2023-09-19T18:39:14.661Z,3.38
2023-09-19T18:42:18.239Z,3.78
2023-09-19T18:45:34.844Z,3.45
2023-09-19T18:48:48.746Z,3.42
2023-09-19T18:51:51.555Z,3.28
2023-09-19T18:54:55.092Z,3.30
2023-09-19T18:58:00.347Z,3.60
2023-09-19T19:01:07.254Z,3.65
2023-09-19T19:04:15.102Z,3.60
2023-09-19T19:07:23.179Z,4.20
2023-09-19T19:10:26.502Z,3.95
2023-09-19T19:13:29.497Z,4.00
2023-09-19T19:16:33.490Z,4.35
2023-09-19T19:19:57.136Z,3.50
2023-09-19T19:23:02.213Z,6.22
2023-09-19T19:26:06.818Z,5.57
2023-09-19T19:32:17.653Z,4.57
2023-09-19T19:35:21.464Z,4.80
2023-09-19T19:38:27.337Z,4.75
2023-09-19T19:41:36.263Z,4.18
2023-09-19T19:44:39.978Z,3.92
2023-09-19T19:47:44.345Z,3.80
2023-09-19T19:50:46.928Z,3.72
2023-09-19T19:53:54.391Z,3.78
2023-09-19T19:56:58.314Z,4.78
2023-09-19T20:00:04.044Z,4.68
2023-09-19T20:03:09.436Z,4.15
2023-09-19T20:06:19.634Z,4.05
2023-09-19T20:09:24.238Z,3.70
2023-09-19T20:12:27.713Z,3.67
2023-09-19T20:15:32.930Z,4.97
2023-09-19T20:18:38.903Z,4.38
2023-09-19T20:21:42.477Z,4.75
2023-09-19T20:24:48.921Z,4.82
2023-09-19T20:27:53.376Z,4.88
2023-09-19T20:30:57.186Z,4.47
2023-09-19T20:34:00.846Z,4.70
2023-09-19T20:37:06.748Z,4.63
2023-09-19T20:40:11.861Z,4.25
2023-09-19T20:43:15.497Z,4.60
2023-09-19T20:46:18.498Z,4.57
2023-09-19T20:49:21.676Z,4.22
2023-09-19T20:52:25.545Z,4.80
2023-09-19T20:55:28.654Z,4.10
2023-09-19T20:58:31.330Z,5.18
2023-09-19T21:01:33.954Z,4.00
2023-09-19T21:04:36.742Z,4.35
2023-09-19T21:07:39.635Z,5.35
2023-09-19T21:10:42.074Z,4.68
2023-09-19T21:13:45.919Z,4.38
2023-09-19T21:16:50.065Z,4.20
2023-09-19T21:22:57.485Z,3.42
2023-09-19T21:26:04.151Z,3.88
2023-09-19T21:29:08.490Z,3.95
2023-09-19T21:32:10.791Z,3.60
2023-09-19T21:35:15.745Z,3.60
2023-09-19T21:38:18.013Z,3.60
2023-09-19T21:41:21.202Z,6.30
2023-09-19T21:44:25.298Z,4.63
2023-09-19T21:47:28.167Z,3.92
2023-09-19T21:50:34.095Z,4.63
2023-09-19T21:53:37.326Z,4.43
2023-09-19T21:56:39.886Z,3.95
2023-09-19T21:59:43.751Z,4.18
2023-09-19T22:02:46.975Z,3.60
2023-09-19T22:05:49.999Z,3.70
2023-09-19T22:08:52.505Z,3.67
2023-09-19T22:11:55.157Z,3.40
2023-09-19T22:14:57.637Z,3.38
2023-09-19T22:18:01.034Z,3.33
2023-09-19T22:21:21.039Z,3.17
2023-09-19T22:24:23.947Z,3.47
2023-09-19T22:27:26.422Z,3.38
2023-09-19T22:30:34.390Z,3.80
2023-09-19T22:33:40.142Z,3.90
2023-09-19T22:36:49.612Z,3.70
2023-09-19T22:39:52.224Z,3.22
2023-09-19T22:42:54.559Z,3.90
2023-09-19T22:45:56.833Z,3.45
2023-09-19T22:48:59.384Z,3.20
2023-09-19T22:52:02.814Z,3.60
2023-09-19T22:55:09.495Z,3.55
2023-09-19T22:58:13.059Z,3.70
2023-09-19T23:01:25.949Z,3.63
2023-09-19T23:04:28.524Z,3.95
2023-09-19T23:07:31.023Z,3.70
2023-09-19T23:10:41.048Z,3.15
2023-09-19T23:13:43.470Z,2.88
2023-09-19T23:16:49.635Z,3.50
2023-09-19T23:19:57.150Z,3.70
2023-09-19T23:23:01.679Z,3.60
2023-09-19T23:26:07.340Z,3.20
2023-09-19T23:29:09.676Z,2.97
2023-09-19T23:32:16.315Z,3.28
2023-09-19T23:35:23.184Z,3.33
2023-09-19T23:38:25.526Z,3.30
2023-09-19T23:41:31.936Z,3.42
2023-09-19T23:44:35.070Z,3.58
2023-09-19T23:47:40.151Z,3.83
2023-09-19T23:50:44.326Z,3.50
2023-09-19T23:53:46.524Z,3.67
2023-09-19T23:56:50.316Z,3.83
2023-09-19T23:59:52.759Z,3.63
